createdAt,value
2019-06-07T00:01:32.827Z,16.44
2019-06-07T00:03:58.681Z,16.56
2019-06-07T00:06:25.903Z,16.56
2019-06-07T00:08:51.985Z,16.69
2019-06-07T00:11:20.370Z,16.50
2019-06-07T00:13:45.591Z,16.50
2019-06-07T00:16:14.174Z,16.37
2019-06-07T00:18:39.215Z,16.44
2019-06-07T00:23:30.866Z,16.44
2019-06-07T00:25:56.750Z,16.44
2019-06-07T00:28:22.624Z,16.37
2019-06-07T00:30:52.044Z,16.44
2019-06-07T00:33:19.222Z,16.44
2019-06-07T00:35:44.014Z,16.44
2019-06-07T00:38:09.975Z,16.50
2019-06-07T00:40:35.793Z,16.50
2019-06-07T00:43:01.635Z,16.37
2019-06-07T00:45:27.512Z,16.50
2019-06-07T00:47:53.533Z,16.31
2019-06-07T00:50:23.534Z,16.31
2019-06-07T00:55:17.170Z,16.31
2019-06-07T00:57:42.971Z,16.25
2019-06-07T01:00:12.291Z,16.44
2019-06-07T01:02:38.689Z,16.50
2019-06-07T01:05:06.086Z,16.56
2019-06-07T01:07:31.938Z,16.37
2019-06-07T01:09:57.790Z,16.75
2019-06-07T01:12:26.297Z,16.44
2019-06-07T01:14:51.431Z,16.44
2019-06-07T01:17:39.674Z,16.44
2019-06-07T01:19:51.586Z,16.56
2019-06-07T01:22:18.431Z,16.37
2019-06-07T01:24:45.470Z,16.44
2019-06-07T01:27:11.298Z,16.44
2019-06-07T01:29:37.182Z,16.56
2019-06-07T01:32:03.131Z,16.44
2019-06-07T01:34:29.183Z,16.37
2019-06-07T01:36:55.150Z,16.44
2019-06-07T01:39:21.208Z,16.25
2019-06-07T01:41:48.771Z,16.12
2019-06-07T01:44:14.586Z,16.31
2019-06-07T01:46:40.418Z,16.31
2019-06-07T01:49:06.244Z,16.25
2019-06-07T01:51:32.112Z,16.44
2019-06-07T01:54:46.915Z,16.37
2019-06-07T01:56:28.277Z,16.25
2019-06-07T01:58:54.506Z,16.50
2019-06-07T02:01:21.668Z,16.25
2019-06-07T02:03:48.268Z,16.50
2019-06-07T02:06:14.235Z,16.31
2019-06-07T02:08:40.059Z,16.25
2019-06-07T02:11:05.922Z,16.37
2019-06-07T02:13:31.791Z,16.31
2019-06-07T02:15:57.867Z,16.12
2019-06-07T02:18:26.082Z,16.19
2019-06-07T02:20:51.539Z,16.25
2019-06-07T02:23:17.394Z,16.06
2019-06-07T02:25:50.046Z,16.06
2019-06-07T02:28:27.663Z,15.81
2019-06-07T02:30:47.653Z,16.12
2019-06-07T02:33:06.489Z,16.12
2019-06-07T02:35:39.040Z,15.94
2019-06-07T02:38:00.213Z,15.94
2019-06-07T02:40:28.010Z,16.06
2019-06-07T02:42:53.875Z,15.88
2019-06-07T02:45:20.108Z,16.12
2019-06-07T02:47:47.077Z,15.94
2019-06-07T02:50:13.780Z,15.94
2019-06-07T02:52:40.924Z,15.88
2019-06-07T02:55:07.951Z,15.81
2019-06-07T02:57:36.958Z,15.75
2019-06-07T03:00:39.074Z,15.81
2019-06-07T03:02:40.807Z,16.06
2019-06-07T03:05:02.544Z,16.06
2019-06-07T03:07:30.623Z,15.81
2019-06-07T03:09:57.111Z,15.75
2019-06-07T03:12:23.559Z,15.94
2019-06-07T03:14:49.759Z,16.00
2019-06-07T03:17:20.283Z,15.88
2019-06-07T03:19:48.656Z,15.94
2019-06-07T03:22:14.599Z,15.81
2019-06-07T03:24:44.138Z,15.69
2019-06-07T03:27:32.633Z,15.63
2019-06-07T03:29:41.257Z,15.69
2019-06-07T03:32:06.012Z,15.75
2019-06-07T03:34:37.181Z,15.75
2019-06-07T03:36:59.631Z,15.81
2019-06-07T03:39:28.004Z,16.00
2019-06-07T03:42:05.880Z,16.12
2019-06-07T03:44:21.027Z,16.00
2019-06-07T03:46:46.971Z,16.12
2019-06-07T03:49:12.781Z,16.06
2019-06-07T03:51:40.539Z,16.06
2019-06-07T03:54:06.372Z,16.00
2019-06-07T03:56:33.774Z,15.88
2019-06-07T03:58:59.979Z,15.94
2019-06-07T04:01:28.587Z,15.81
2019-06-07T04:03:53.937Z,15.94
2019-06-07T04:06:19.783Z,16.00
2019-06-07T04:08:45.599Z,16.12
2019-06-07T04:11:11.441Z,15.94
2019-06-07T04:13:42.137Z,15.63
2019-06-07T04:16:06.426Z,16.00
2019-06-07T04:18:33.040Z,16.00
2019-06-07T04:20:59.621Z,15.94
2019-06-07T04:23:30.043Z,15.94
2019-06-07T04:25:53.295Z,15.88
2019-06-07T04:28:19.120Z,15.94
2019-06-07T04:30:45.253Z,15.94
2019-06-07T04:33:12.293Z,15.94
2019-06-07T04:35:42.518Z,15.88
2019-06-07T04:38:10.087Z,16.06
2019-06-07T04:40:39.065Z,16.44
2019-06-07T04:43:04.809Z,16.31
2019-06-07T04:45:40.247Z,16.44
2019-06-07T04:48:01.141Z,16.31
2019-06-07T04:50:31.097Z,16.75
2019-06-07T04:52:57.348Z,16.75
2019-06-07T04:55:23.204Z,16.56
2019-06-07T04:57:49.017Z,16.62
2019-06-07T05:00:48.919Z,16.87
2019-06-07T05:02:46.673Z,16.87
2019-06-07T05:05:12.609Z,18.37
2019-06-07T05:07:40.856Z,19.62
2019-06-07T05:10:06.330Z,19.50
2019-06-07T05:12:33.297Z,18.12
2019-06-07T05:14:59.942Z,18.12
2019-06-07T05:17:25.786Z,17.94
2019-06-07T05:19:51.608Z,17.87
2019-06-07T05:22:17.453Z,17.62
2019-06-07T05:24:44.020Z,17.75
2019-06-07T05:27:10.018Z,17.62
2019-06-07T05:29:38.395Z,17.44
2019-06-07T05:32:03.604Z,17.62
2019-06-07T05:34:32.255Z,17.75
2019-06-07T05:37:11.090Z,17.31
2019-06-07T05:39:25.114Z,17.69
2019-06-07T05:41:51.118Z,17.37
2019-06-07T05:44:17.059Z,17.75
2019-06-07T05:46:46.710Z,17.62
2019-06-07T05:49:10.654Z,17.56
2019-06-07T05:51:38.085Z,17.56
2019-06-07T05:54:04.250Z,17.81
2019-06-07T05:56:30.108Z,17.62
2019-06-07T05:58:55.966Z,18.00
2019-06-07T06:03:49.545Z,18.00
2019-06-07T06:06:15.896Z,18.06
2019-06-07T06:08:42.598Z,18.00
2019-06-07T06:11:09.578Z,17.87
2019-06-07T06:13:38.275Z,18.19
2019-06-07T06:16:03.243Z,17.87
2019-06-07T06:18:29.158Z,17.94
2019-06-07T06:21:19.106Z,17.75
2019-06-07T06:23:23.240Z,18.06
2019-06-07T06:25:55.897Z,18.06
2019-06-07T06:28:16.818Z,18.00
2019-06-07T06:30:47.003Z,17.87
2019-06-07T06:33:27.066Z,18.25
2019-06-07T06:35:38.166Z,18.31
2019-06-07T06:38:04.042Z,18.19
2019-06-07T06:40:29.926Z,18.56
2019-06-07T06:42:55.964Z,18.75
2019-06-07T06:45:22.009Z,18.69
2019-06-07T06:47:50.540Z,18.81
2019-06-07T06:50:16.029Z,18.87
2019-06-07T06:52:44.005Z,18.62
2019-06-07T06:55:09.920Z,18.75
2019-06-07T06:57:40.600Z,18.81
2019-06-07T07:00:08.758Z,18.69
2019-06-07T07:02:34.924Z,18.75
2019-06-07T07:05:00.966Z,18.75
2019-06-07T07:07:27.249Z,19.06
2019-06-07T07:09:58.984Z,19.12
2019-06-07T07:12:21.936Z,19.19
2019-06-07T07:14:49.742Z,19.19
2019-06-07T07:17:15.605Z,18.87
2019-06-07T07:19:42.554Z,18.87
2019-06-07T07:22:09.190Z,18.94
2019-06-07T07:24:35.020Z,19.25
2019-06-07T07:27:00.967Z,19.25
2019-06-07T07:29:26.823Z,19.50
2019-06-07T07:31:56.140Z,19.81
2019-06-07T07:34:33.306Z,19.81
2019-06-07T07:36:51.017Z,19.69
2019-06-07T07:39:17.302Z,19.81
2019-06-07T07:42:04.790Z,19.94
2019-06-07T07:44:11.179Z,19.69
2019-06-07T07:46:37.133Z,19.75
2019-06-07T07:49:02.995Z,19.81
2019-06-07T07:51:28.887Z,19.87
2019-06-07T07:54:09.372Z,19.87
2019-06-07T07:56:22.502Z,19.81
2019-06-07T07:58:51.168Z,19.81
2019-06-07T08:01:17.539Z,20.00
2019-06-07T08:03:43.463Z,20.00
2019-06-07T08:06:09.334Z,19.94
2019-06-07T08:11:02.129Z,20.50
2019-06-07T08:13:28.540Z,20.12
2019-06-07T08:15:59.232Z,19.94
2019-06-07T08:18:22.325Z,20.06
2019-06-07T08:21:08.667Z,19.94
2019-06-07T08:23:16.031Z,19.94
2019-06-07T08:25:42.538Z,20.00
2019-06-07T08:28:10.612Z,20.06
2019-06-07T08:31:00.083Z,20.00
2019-06-07T08:33:24.575Z,20.25
2019-06-07T08:36:03.895Z,20.00
2019-06-07T08:38:26.736Z,20.06
2019-06-07T08:40:27.627Z,20.00
2019-06-07T08:43:11.359Z,20.12
2019-06-07T08:45:21.731Z,20.19
2019-06-07T08:47:47.653Z,20.12
2019-06-07T08:50:14.217Z,20.12
2019-06-07T08:52:40.170Z,20.12
2019-06-07T08:55:06.853Z,20.06
2019-06-07T08:57:32.829Z,20.00
2019-06-07T09:00:06.286Z,20.00
2019-06-07T09:02:26.534Z,20.00
2019-06-07T09:04:54.687Z,20.00
2019-06-07T09:07:23.191Z,20.06
2019-06-07T09:09:48.562Z,20.25
2019-06-07T09:12:16.446Z,20.31
2019-06-07T09:14:59.747Z,20.31
2019-06-07T09:17:12.358Z,20.31
2019-06-07T09:19:38.095Z,20.37
2019-06-07T09:22:10.659Z,20.37
2019-06-07T09:24:31.719Z,20.37
2019-06-07T09:26:58.297Z,20.56
2019-06-07T09:29:25.451Z,20.44
2019-06-07T09:31:53.615Z,20.50
2019-06-07T09:34:19.765Z,20.62
2019-06-07T09:36:45.776Z,20.69
2019-06-07T09:39:12.703Z,20.69
2019-06-07T09:41:47.611Z,20.88
2019-06-07T09:44:21.285Z,20.88
2019-06-07T09:46:34.681Z,21.12
2019-06-07T09:49:20.968Z,21.12
2019-06-07T09:51:31.262Z,21.44
2019-06-07T09:53:58.542Z,21.12
2019-06-07T09:56:25.134Z,21.12
2019-06-07T09:58:53.281Z,21.31
2019-06-07T10:01:19.214Z,21.81
2019-06-07T10:03:45.284Z,21.50
2019-06-07T10:06:13.587Z,21.50
2019-06-07T10:09:56.876Z,21.44
2019-06-07T10:11:09.151Z,21.44
2019-06-07T10:13:35.089Z,21.56
2019-06-07T10:16:01.202Z,21.25
2019-06-07T10:18:27.137Z,21.19
2019-06-07T10:20:55.081Z,21.25
2019-06-07T10:23:21.028Z,21.56
2019-06-07T10:25:46.992Z,21.56
2019-06-07T10:28:12.954Z,21.69
2019-06-07T10:30:40.087Z,21.56
2019-06-07T10:33:06.882Z,21.75
2019-06-07T10:35:33.044Z,21.87
2019-06-07T10:38:00.231Z,21.94
2019-06-07T10:40:26.640Z,21.87
2019-06-07T10:42:52.864Z,21.69
2019-06-07T10:45:18.882Z,21.75
2019-06-07T10:47:44.890Z,21.62
2019-06-07T10:50:12.251Z,21.62
2019-06-07T10:52:38.243Z,21.69
2019-06-07T10:55:04.807Z,21.69
2019-06-07T10:57:30.935Z,21.69
2019-06-07T10:59:56.866Z,21.87
2019-06-07T11:02:22.737Z,22.00
2019-06-07T11:09:41.169Z,22.75
2019-06-07T11:12:08.300Z,22.81
2019-06-07T11:14:34.342Z,22.81
2019-06-07T11:17:00.330Z,22.81
2019-06-07T11:19:26.269Z,22.94
2019-06-07T11:21:52.099Z,22.69
2019-06-07T11:24:23.688Z,22.50
2019-06-07T11:26:45.803Z,22.37
2019-06-07T11:29:12.797Z,22.62
2019-06-07T11:31:38.761Z,22.62
2019-06-07T11:34:04.607Z,22.69
2019-06-07T11:36:30.544Z,22.94
2019-06-07T11:38:56.485Z,22.75
2019-06-07T11:41:22.395Z,22.94
2019-06-07T11:43:48.334Z,22.69
2019-06-07T11:46:17.273Z,22.81
2019-06-07T11:48:43.327Z,22.44
2019-06-07T11:51:12.673Z,22.56
2019-06-07T11:53:38.615Z,22.62
2019-06-07T11:56:04.439Z,22.81
2019-06-07T11:58:33.097Z,22.94
2019-06-07T12:00:59.056Z,22.94
2019-06-07T12:03:25.068Z,22.94
2019-06-07T12:05:52.869Z,22.81
2019-06-07T12:08:18.805Z,22.87
2019-06-07T12:10:44.789Z,22.94
2019-06-07T12:13:10.750Z,22.94
2019-06-07T12:15:36.812Z,23.06
2019-06-07T12:18:02.897Z,22.81
2019-06-07T12:20:28.844Z,22.81
2019-06-07T12:22:54.770Z,22.75
2019-06-07T12:25:24.808Z,22.81
2019-06-07T12:27:48.425Z,23.00
2019-06-07T12:30:22.444Z,22.94
2019-06-07T12:32:47.804Z,23.06
2019-06-07T12:35:13.989Z,23.19
2019-06-07T12:37:44.255Z,23.31
2019-06-07T12:40:08.705Z,23.44
2019-06-07T12:42:35.165Z,23.44
2019-06-07T12:45:03.487Z,23.38
2019-06-07T12:47:29.443Z,23.44
2019-06-07T12:49:55.361Z,23.50
2019-06-07T12:52:22.995Z,23.62
2019-06-07T12:57:17.932Z,23.75
2019-06-07T12:59:45.608Z,23.56
2019-06-07T13:02:11.597Z,23.56
2019-06-07T13:04:37.551Z,23.50
2019-06-07T13:07:06.100Z,23.44
2019-06-07T13:09:36.048Z,23.50
2019-06-07T13:12:01.227Z,23.56
2019-06-07T13:14:34.450Z,23.56
2019-06-07T13:17:00.809Z,23.62
2019-06-07T13:19:26.781Z,23.62
2019-06-07T13:21:52.719Z,23.56
2019-06-07T13:24:20.923Z,23.44
2019-06-07T13:26:46.414Z,23.44
2019-06-07T13:29:12.395Z,23.69
2019-06-07T13:31:38.328Z,23.75
2019-06-07T13:34:04.316Z,23.81
2019-06-07T13:38:56.464Z,24.19
2019-06-07T13:41:36.788Z,24.00
2019-06-07T13:43:51.695Z,23.87
2019-06-07T13:46:18.914Z,23.81
2019-06-07T13:48:44.989Z,23.81
2019-06-07T13:51:11.013Z,23.81
2019-06-07T13:53:36.968Z,23.81
2019-06-07T13:56:02.854Z,23.75
2019-06-07T13:58:28.850Z,23.69
2019-06-07T14:00:54.821Z,23.50
2019-06-07T14:03:24.237Z,23.56
2019-06-07T14:05:48.973Z,23.56
2019-06-07T14:08:14.973Z,23.62
2019-06-07T14:10:40.949Z,23.75
2019-06-07T14:13:08.532Z,23.75
2019-06-07T14:15:34.591Z,23.75
2019-06-07T14:18:00.573Z,23.75
2019-06-07T14:20:30.940Z,23.75
2019-06-07T14:22:54.745Z,23.75
2019-06-07T14:25:20.996Z,23.87
2019-06-07T14:27:47.014Z,23.94
2019-06-07T14:30:14.017Z,24.19
2019-06-07T14:32:40.097Z,24.12
2019-06-07T14:35:06.823Z,24.06
2019-06-07T14:37:33.135Z,24.06
2019-06-07T14:39:59.312Z,24.19
2019-06-07T14:44:51.633Z,24.25
2019-06-07T14:47:17.512Z,24.00
2019-06-07T14:49:43.451Z,24.00
2019-06-07T14:52:09.457Z,24.12
2019-06-07T14:54:38.831Z,24.19
2019-06-07T14:57:04.609Z,24.19
2019-06-07T14:59:30.689Z,24.19
2019-06-07T15:01:56.755Z,24.19
2019-06-07T15:04:22.800Z,24.19
2019-06-07T15:06:48.877Z,24.25
2019-06-07T15:09:15.137Z,24.12
2019-06-07T15:11:41.146Z,24.12
2019-06-07T15:14:07.179Z,24.19
2019-06-07T15:16:33.834Z,24.25
2019-06-07T15:19:00.300Z,24.25
2019-06-07T15:21:26.772Z,24.25
2019-06-07T15:23:53.730Z,24.25
2019-06-07T15:26:21.089Z,24.19
2019-06-07T15:28:47.107Z,24.19
2019-06-07T15:31:13.176Z,24.25
2019-06-07T15:33:39.264Z,24.25
2019-06-07T15:36:05.347Z,24.25
2019-06-07T15:41:59.462Z,24.25
2019-06-07T15:44:25.655Z,24.56
2019-06-07T15:46:51.622Z,24.56
2019-06-07T15:51:44.031Z,24.69
2019-06-07T15:54:12.149Z,24.63
2019-06-07T15:56:39.084Z,24.69
2019-06-07T15:59:05.275Z,24.63
2019-06-07T16:01:31.301Z,24.63
2019-06-07T16:03:59.008Z,24.75
2019-06-07T16:06:25.329Z,24.63
2019-06-07T16:08:52.111Z,24.81
2019-06-07T16:11:18.085Z,24.75
2019-06-07T16:18:37.654Z,24.75
2019-06-07T16:21:03.904Z,24.63
2019-06-07T16:23:29.755Z,24.75
2019-06-07T16:25:55.729Z,24.75
2019-06-07T16:28:21.679Z,24.75
2019-06-07T16:30:47.619Z,24.75
2019-06-07T16:33:13.637Z,24.69
2019-06-07T16:35:39.520Z,24.56
2019-06-07T16:38:05.497Z,24.56
2019-06-07T16:40:31.463Z,24.50
2019-06-07T16:42:57.366Z,24.50
2019-06-07T16:45:23.842Z,24.50
2019-06-07T16:47:49.929Z,24.50
2019-06-07T16:50:16.340Z,24.44
2019-06-07T16:52:44.014Z,24.44
2019-06-07T16:55:10.399Z,24.44
2019-06-07T16:57:36.659Z,24.44
2019-06-07T17:00:09.461Z,24.63
2019-06-07T17:02:35.424Z,24.63
2019-06-07T17:05:01.371Z,24.56
2019-06-07T17:07:27.612Z,24.63
2019-06-07T17:09:53.482Z,24.56
2019-06-07T17:12:19.445Z,24.50
2019-06-07T17:14:46.617Z,24.44
2019-06-07T17:17:12.578Z,24.37
2019-06-07T17:19:38.840Z,24.50
2019-06-07T17:22:04.919Z,24.44
2019-06-07T17:24:30.793Z,24.37
2019-06-07T17:26:56.738Z,24.37
2019-06-07T17:29:22.718Z,24.50
2019-06-07T17:31:48.731Z,24.44
2019-06-07T17:34:14.679Z,24.37
2019-06-07T17:36:40.560Z,24.44
2019-06-07T17:39:07.138Z,24.44
2019-06-07T17:41:47.791Z,24.44
2019-06-07T17:44:00.850Z,24.50
2019-06-07T17:46:26.858Z,24.56
2019-06-07T17:48:52.817Z,24.69
2019-06-07T17:56:11.948Z,25.56
2019-06-07T18:05:56.757Z,25.44
2019-06-07T18:08:23.120Z,25.12
2019-06-07T18:10:50.044Z,25.06
2019-06-07T18:13:16.048Z,25.00
2019-06-07T18:15:44.380Z,25.00
2019-06-07T18:18:10.852Z,24.94
2019-06-07T18:20:36.808Z,24.87
2019-06-07T18:23:04.070Z,24.69
2019-06-07T18:25:29.904Z,24.50
2019-06-07T18:27:55.810Z,24.56
2019-06-07T18:30:21.922Z,24.63
2019-06-07T18:32:48.764Z,24.69
2019-06-07T18:35:14.690Z,24.56
2019-06-07T18:37:40.572Z,24.69
2019-06-07T18:40:06.710Z,24.63
2019-06-07T18:42:32.554Z,24.75
2019-06-07T18:44:59.419Z,24.75
2019-06-07T18:47:25.389Z,24.56
2019-06-07T18:49:51.537Z,24.37
2019-06-07T18:52:19.394Z,24.50
2019-06-07T18:54:45.230Z,24.31
2019-06-07T18:57:12.427Z,24.31
2019-06-07T18:59:38.522Z,24.19
2019-06-07T19:02:04.483Z,24.00
2019-06-07T19:04:30.757Z,24.06
2019-06-07T19:06:56.594Z,24.06
2019-06-07T19:09:22.426Z,24.12
2019-06-07T19:11:48.722Z,24.31
2019-06-07T19:14:14.633Z,24.00
2019-06-07T19:16:40.468Z,23.81
2019-06-07T19:19:06.420Z,23.81
2019-06-07T19:21:32.554Z,23.87
2019-06-07T19:23:58.446Z,23.69
2019-06-07T19:26:24.288Z,23.62
2019-06-07T19:28:50.578Z,23.69
2019-06-07T19:31:16.543Z,23.69
2019-06-07T19:33:49.187Z,23.87
2019-06-07T19:36:10.405Z,23.50
2019-06-07T19:38:36.239Z,23.69
2019-06-07T19:41:16.508Z,23.69
2019-06-07T19:43:29.897Z,23.69
2019-06-07T19:45:56.171Z,23.62
2019-06-07T19:48:22.207Z,23.62
2019-06-07T19:50:48.044Z,23.62
2019-06-07T19:53:13.995Z,23.50
2019-06-07T19:55:39.894Z,23.56
2019-06-07T19:58:05.798Z,23.44
2019-06-07T20:00:35.723Z,23.25
2019-06-07T20:03:02.278Z,23.38
2019-06-07T20:05:29.340Z,23.56
2019-06-07T20:07:56.363Z,23.38
2019-06-07T20:10:22.503Z,23.50
2019-06-07T20:12:48.354Z,23.19
2019-06-07T20:15:28.393Z,23.38
2019-06-07T20:17:44.071Z,23.12
2019-06-07T20:20:10.395Z,23.12
2019-06-07T20:22:36.249Z,23.25
2019-06-07T20:25:05.047Z,23.12
2019-06-07T20:27:31.036Z,22.94
2019-06-07T20:29:57.973Z,23.12
2019-06-07T20:32:24.027Z,22.94
2019-06-07T20:34:49.928Z,22.69
2019-06-07T20:37:15.794Z,22.62
2019-06-07T20:39:41.621Z,22.56
2019-06-07T20:42:07.876Z,22.62
2019-06-07T20:44:33.919Z,22.50
2019-06-07T20:47:00.000Z,22.94
2019-06-07T20:49:26.043Z,22.56
2019-06-07T20:51:51.923Z,22.37
2019-06-07T20:54:17.751Z,22.44
2019-06-07T20:56:43.731Z,22.19
2019-06-07T20:59:09.631Z,22.25
2019-06-07T21:01:35.477Z,22.25
2019-06-07T21:04:01.378Z,22.06
2019-06-07T21:06:27.364Z,22.13
2019-06-07T21:08:53.199Z,22.06
2019-06-07T21:11:19.054Z,22.06
2019-06-07T21:13:44.959Z,21.87
2019-06-07T21:16:10.792Z,21.81
2019-06-07T21:18:36.728Z,21.87
2019-06-07T21:21:02.548Z,21.69
2019-06-07T21:23:28.461Z,21.87
2019-06-07T21:25:54.285Z,21.81
2019-06-07T21:28:20.132Z,21.87
2019-06-07T21:30:46.038Z,21.75
2019-06-07T21:33:12.041Z,21.69
2019-06-07T21:35:38.434Z,21.50
2019-06-07T21:38:05.968Z,21.56
2019-06-07T21:40:32.031Z,21.62
2019-06-07T21:42:57.964Z,21.56
2019-06-07T21:45:23.824Z,21.56
2019-06-07T21:47:49.719Z,21.56
2019-06-07T21:50:15.745Z,21.44
2019-06-07T21:52:41.938Z,21.44
2019-06-07T21:55:09.064Z,21.37
2019-06-07T21:57:36.282Z,21.44
2019-06-07T22:00:07.155Z,21.31
2019-06-07T22:02:33.139Z,21.44
2019-06-07T22:04:58.966Z,21.31
2019-06-07T22:07:26.111Z,21.25
2019-06-07T22:09:51.940Z,21.31
2019-06-07T22:12:18.846Z,21.37
2019-06-07T22:14:44.674Z,21.44
2019-06-07T22:17:10.513Z,21.31
2019-06-07T22:19:36.334Z,21.37
2019-06-07T22:22:03.308Z,21.37
2019-06-07T22:24:29.992Z,21.56
2019-06-07T22:26:55.844Z,21.31
2019-06-07T22:29:21.702Z,21.19
2019-06-07T22:31:47.543Z,21.25
2019-06-07T22:34:13.392Z,21.19
2019-06-07T22:36:39.212Z,21.25
2019-06-07T22:39:05.561Z,21.12
2019-06-07T22:41:31.530Z,21.19
2019-06-07T22:43:57.447Z,21.06
2019-06-07T22:46:36.247Z,21.06
2019-06-07T22:48:51.028Z,21.06
2019-06-07T22:51:18.309Z,21.00
2019-06-07T22:53:44.349Z,21.12
2019-06-07T22:56:12.190Z,21.06
2019-06-07T22:58:38.138Z,21.06
2019-06-07T23:01:03.988Z,20.88
2019-06-07T23:03:30.246Z,21.00
2019-06-07T23:05:56.123Z,21.00
2019-06-07T23:08:22.060Z,21.19
2019-06-07T23:10:47.953Z,20.88
2019-06-07T23:13:13.827Z,20.94
2019-06-07T23:15:39.682Z,21.00
2019-06-07T23:18:05.979Z,20.94
2019-06-07T23:20:31.816Z,20.88
2019-06-07T23:22:57.666Z,20.75
2019-06-07T23:25:24.704Z,20.94
2019-06-07T23:27:50.834Z,20.94
2019-06-07T23:30:16.879Z,20.56
2019-06-07T23:32:42.733Z,20.81
2019-06-07T23:35:10.610Z,20.56
2019-06-07T23:37:36.614Z,20.62
2019-06-07T23:40:04.073Z,20.56
2019-06-07T23:42:29.915Z,20.56
2019-06-07T23:45:01.889Z,20.75
2019-06-07T23:47:27.839Z,20.56
2019-06-07T23:49:53.679Z,20.62
2019-06-07T23:52:19.743Z,20.81
2019-06-07T23:54:45.666Z,20.56
2019-06-07T23:57:12.127Z,20.69
2019-06-07T23:59:38.124Z,20.56
